TimeCST,TemperatureF,Dew PointF,Humidity,Sea Level PressureIn,VisibilityMPH,Wind Direction,Wind SpeedMPH,Gust SpeedMPH,PrecipitationIn,Events,Conditions,WindDirDegrees,DateUTC
12:15 AM,10.6,8.4,91,30.10,10.0,Calm,Calm,-,N/A,,Clear,0,2013-02-25 06:15:00
12:35 AM,10.2,8.1,91,30.10,7.0,Calm,Calm,-,N/A,,Clear,0,2013-02-25 06:35:00
12:55 AM,10.2,8.2,92,30.11,7.0,Calm,Calm,-,N/A,,Clear,0,2013-02-25 06:55:00
1:15 AM,10.0,7.7,90,30.11,7.0,Calm,Calm,-,N/A,,Clear,0,2013-02-25 07:15:00
1:35 AM,8.6,6.1,89,30.12,10.0,Calm,Calm,-,N/A,,Clear,0,2013-02-25 07:35:00
1:55 AM,9.9,7.9,92,30.12,10.0,Calm,Calm,-,N/A,,Clear,0,2013-02-25 07:55:00
2:15 AM,8.4,5.7,89,30.11,7.0,NNE,3.5,-,N/A,,Clear,30,2013-02-25 08:15:00
2:35 AM,8.2,5.7,89,30.11,7.0,Calm,Calm,-,N/A,,Clear,0,2013-02-25 08:35:00
2:55 AM,8.4,5.9,89,30.10,10.0,Calm,Calm,-,N/A,,Clear,0,2013-02-25 08:55:00
3:15 AM,7.2,4.5,89,30.10,10.0,Calm,Calm,-,N/A,,Mostly Cloudy,0,2013-02-25 09:15:00
3:35 AM,8.6,6.3,90,30.10,10.0,Calm,Calm,-,N/A,,Overcast,0,2013-02-25 09:35:00
3:55 AM,8.6,5.9,89,30.10,10.0,Calm,Calm,-,N/A,,Overcast,0,2013-02-25 09:55:00
4:15 AM,8.4,6.1,90,30.09,7.0,Calm,Calm,-,N/A,,Scattered Clouds,0,2013-02-25 10:15:00
4:35 AM,7.7,5.4,90,30.10,7.0,Calm,Calm,-,N/A,,Clear,0,2013-02-25 10:35:00
4:55 AM,8.6,6.1,89,30.10,7.0,Calm,Calm,-,N/A,,Scattered Clouds,0,2013-02-25 10:55:00
5:15 AM,7.5,5.0,89,30.10,10.0,Calm,Calm,-,N/A,,Overcast,0,2013-02-25 11:15:00
5:35 AM,10.0,7.7,90,30.10,7.0,Calm,Calm,-,N/A,,Overcast,0,2013-02-25 11:35:00
5:55 AM,11.3,9.1,91,30.11,7.0,Calm,Calm,-,N/A,,Overcast,0,2013-02-25 11:55:00
6:15 AM,13.1,11.1,92,30.10,10.0,Calm,Calm,-,N/A,,Overcast,0,2013-02-25 12:15:00
6:35 AM,13.1,11.1,92,30.11,7.0,Calm,Calm,-,N/A,,Overcast,0,2013-02-25 12:35:00
6:55 AM,14.0,12.0,92,30.11,7.0,Calm,Calm,-,N/A,,Overcast,0,2013-02-25 12:55:00
7:15 AM,14.7,12.6,91,30.12,7.0,Calm,Calm,-,N/A,,Overcast,0,2013-02-25 13:15:00
7:35 AM,15.4,13.5,92,30.11,7.0,Calm,Calm,-,N/A,,Overcast,0,2013-02-25 13:35:00
7:55 AM,16.3,14.0,90,30.12,7.0,Calm,Calm,-,N/A,,Overcast,0,2013-02-25 13:55:00
8:15 AM,17.8,15.6,91,30.12,4.0,Calm,Calm,-,N/A,,Overcast,0,2013-02-25 14:15:00
8:35 AM,17.8,15.6,91,30.12,5.0,Calm,Calm,-,N/A,,Mostly Cloudy,0,2013-02-25 14:35:00
8:55 AM,19.4,17.2,91,30.13,4.0,Calm,Calm,-,N/A,Snow,Light Snow,0,2013-02-25 14:55:00
9:15 AM,21.2,18.9,91,30.13,5.0,Calm,Calm,-,N/A,Snow,Light Snow,0,2013-02-25 15:15:00
9:35 AM,23.0,19.6,87,30.12,5.0,Calm,Calm,-,N/A,Snow,Light Snow,0,2013-02-25 15:35:00
9:55 AM,24.1,20.8,87,30.13,1.8,Calm,Calm,-,N/A,,Overcast,0,2013-02-25 15:55:00
10:15 AM,26.6,22.5,84,30.12,5.0,East,4.6,-,N/A,Rain,Freezing Rain,100,2013-02-25 16:15:00
10:35 AM,27.5,22.5,81,30.11,7.0,East,3.5,-,N/A,,Overcast,80,2013-02-25 16:35:00
10:55 AM,27.7,22.5,81,30.12,5.0,SSE,3.5,-,N/A,Rain,Freezing Rain,150,2013-02-25 16:55:00
11:15 AM,28.2,21.9,77,30.11,10.0,East,3.5,-,N/A,,Overcast,100,2013-02-25 17:15:00
11:35 AM,28.9,21.4,73,30.11,10.0,East,3.5,-,N/A,,Overcast,100,2013-02-25 17:35:00
11:55 AM,29.3,21.4,72,30.10,10.0,SE,5.8,-,N/A,,Overcast,130,2013-02-25 17:55:00
12:15 PM,30.0,21.2,70,30.10,10.0,Calm,Calm,-,N/A,,Overcast,0,2013-02-25 18:15:00
12:35 PM,30.2,20.8,68,30.09,10.0,SE,5.8,-,N/A,,Overcast,140,2013-02-25 18:35:00
12:55 PM,30.7,20.8,67,30.08,10.0,SSE,4.6,-,N/A,,Overcast,160,2013-02-25 18:55:00
1:15 PM,30.6,20.3,66,30.08,10.0,SSW,4.6,-,N/A,,Overcast,200,2013-02-25 19:15:00
1:35 PM,30.9,20.7,66,30.08,10.0,SE,3.5,-,N/A,,Overcast,130,2013-02-25 19:35:00
1:55 PM,30.9,21.0,67,30.07,10.0,South,5.8,-,N/A,,Overcast,170,2013-02-25 19:55:00
2:15 PM,30.9,20.8,66,30.07,10.0,South,3.5,-,N/A,,Overcast,190,2013-02-25 20:15:00
2:35 PM,30.9,20.7,66,30.07,10.0,Calm,Calm,-,N/A,,Overcast,0,2013-02-25 20:35:00
2:55 PM,30.9,20.5,65,30.07,10.0,South,3.5,-,N/A,,Overcast,190,2013-02-25 20:55:00
3:15 PM,30.7,21.2,68,30.07,10.0,Calm,Calm,-,N/A,,Overcast,0,2013-02-25 21:15:00
3:35 PM,31.1,20.3,64,30.07,10.0,Calm,Calm,-,N/A,,Overcast,0,2013-02-25 21:35:00
3:55 PM,31.3,21.2,66,30.07,10.0,Calm,Calm,-,N/A,,Overcast,0,2013-02-25 21:55:00
4:36 PM,30.2,21.2,69,30.06,10.0,Calm,Calm,-,N/A,,Overcast,0,2013-02-25 22:36:00
4:55 PM,31.3,20.8,65,30.07,10.0,Calm,Calm,-,N/A,,Overcast,0,2013-02-25 22:55:00
5:15 PM,31.1,21.2,67,30.07,10.0,Calm,Calm,-,N/A,,Overcast,0,2013-02-25 23:15:00
5:35 PM,31.1,20.7,65,30.06,10.0,NE,3.5,-,N/A,,Overcast,40,2013-02-25 23:35:00
5:55 PM,30.4,21.4,69,30.06,10.0,Calm,Calm,-,N/A,,Overcast,0,2013-02-25 23:55:00
6:15 PM,29.8,21.6,71,30.06,10.0,Calm,Calm,-,N/A,,Overcast,0,2013-02-26 00:15:00
6:35 PM,28.0,21.9,78,30.06,10.0,Calm,Calm,-,N/A,,Overcast,0,2013-02-26 00:35:00
6:55 PM,26.2,20.7,79,30.06,10.0,Calm,Calm,-,N/A,,Overcast,0,2013-02-26 00:55:00
7:15 PM,25.5,20.5,81,30.06,10.0,Calm,Calm,-,N/A,,Overcast,0,2013-02-26 01:15:00
7:35 PM,25.5,21.0,83,30.06,10.0,Calm,Calm,-,N/A,,Scattered Clouds,0,2013-02-26 01:35:00
7:55 PM,23.2,19.9,87,30.07,10.0,Calm,Calm,-,N/A,,Clear,0,2013-02-26 01:55:00
8:15 PM,22.3,20.3,92,30.07,7.0,Calm,Calm,-,N/A,,Mostly Cloudy,0,2013-02-26 02:15:00
8:35 PM,24.1,19.4,82,30.06,10.0,Calm,Calm,-,N/A,,Overcast,0,2013-02-26 02:35:00
8:55 PM,23.9,20.3,86,30.06,10.0,Calm,Calm,-,N/A,,Mostly Cloudy,0,2013-02-26 02:55:00
9:15 PM,20.3,18.1,91,30.06,7.0,NNE,3.5,-,N/A,,Scattered Clouds,30,2013-02-26 03:15:00
9:35 PM,23.0,19.4,86,30.05,10.0,Calm,Calm,-,N/A,,Scattered Clouds,0,2013-02-26 03:35:00
9:55 PM,18.9,17.1,93,30.04,7.0,NNE,3.5,-,N/A,,Clear,20,2013-02-26 03:55:00
10:15 PM,15.4,13.5,92,30.04,5.0,NNE,3.5,-,N/A,,Clear,20,2013-02-26 04:15:00
10:35 PM,19.8,17.8,92,30.06,7.0,Calm,Calm,-,N/A,,Clear,0,2013-02-26 04:35:00
10:55 PM,21.0,18.5,90,30.07,7.0,Calm,Calm,-,N/A,,Scattered Clouds,0,2013-02-26 04:55:00
11:15 PM,18.1,16.0,91,30.07,7.0,NE,3.5,-,N/A,,Mostly Cloudy,40,2013-02-26 05:15:00
11:35 PM,17.1,14.5,90,30.06,7.0,Calm,Calm,-,N/A,,Overcast,0,2013-02-26 05:35:00
11:55 PM,20.7,18.3,91,30.07,7.0,NE,3.5,-,N/A,,Scattered Clouds,50,2013-02-26 05:55:00